| time (UTC) | temp C | wind direction | speed KPH | gust KPH | rain 1hr cm | rain 24hr cm | rain mn cm | humidity % | barometer mb |
| 20260505191511 | 15 | 258 | 0.0 | 3.2 | 0.00 | 0.03 | 0.03 | 70 | 1007.3 |
| 20260505184511 | 15 | 342 | 1.6 | 3.2 | 0.00 | 0.03 | 0.03 | 68 | 1007.3 |
| 20260505181511 | 15 | 226 | 4.8 | 8.0 | 0.00 | 0.03 | 0.03 | 67 | 1007.4 |
| 20260505173011 | 17 | 331 | 1.6 | 3.2 | 0.00 | 0.03 | 0.03 | 62 | 1006.9 |
| 20260505171511 | 17 | 324 | 0.0 | 4.8 | 0.00 | 0.03 | 0.03 | 63 | 1006.9 |
| 20260505170011 | 17 | 350 | 0.0 | 4.8 | 0.03 | 0.03 | 0.03 | 64 | 1006.8 |
| 20260505164511 | 17 | 332 | 0.0 | 1.6 | 0.03 | 0.03 | 0.03 | 67 | 1006.9 |
| 20260505163011 | 16 | 315 | 0.0 | 3.2 | 0.03 | 0.03 | 0.03 | 73 | 1007.0 |
| 20260505161511 | 16 | 202 | 0.0 | 3.2 | 0.03 | 0.03 | 0.03 | 69 | 1007.1 |
| 20260505153011 | 17 | 220 | 3.2 | 6.4 | 0.00 | 0.00 | 0.00 | 63 | 1007.2 |
| 20260505151511 | 18 | 226 | 4.8 | 8.0 | 0.00 | 0.00 | 0.00 | 61 | 1007.0 |
| 20260505124511 | 25 | 192 | 1.6 | 3.2 | 0.00 | 0.00 | 0.00 | 34 | 1006.4 |
| 20260505121512 | 25 | 5 | 1.6 | 4.8 | 0.00 | 0.00 | 0.00 | 33 | 1006.5 |
| 20260505120011 | 26 | 14 | 1.6 | 4.8 | 0.00 | 0.00 | 0.00 | 34 | 1006.7 |
| 20260505114511 | 25 | 202 | 1.6 | 4.8 | 0.00 | 0.00 | 0.00 | 32 | 1006.6 |
| 20260505113011 | 25 | 134 | 1.6 | 3.2 | 0.00 | 0.00 | 0.00 | 39 | 1006.8 |
| 20260505111511 | 25 | 136 | 1.6 | 6.4 | 0.00 | 0.00 | 0.00 | 39 | 1007.0 |
| 20260505101511 | 23 | 323 | 1.6 | 3.2 | 0.00 | 0.00 | 0.00 | 43 | 1007.8 |
| 20260505100011 | 23 | 259 | 1.6 | 6.4 | 0.00 | 0.00 | 0.00 | 42 | 1008.0 |
| 20260505094511 | 22 | 38 | 1.6 | 3.2 | 0.00 | 0.00 | 0.00 | 44 | 1008.1 |
| 20260505093011 | 22 | 122 | 1.6 | 4.8 | 0.00 | 0.00 | 0.00 | 46 | 1008.4 |
| 20260505091511 | 22 | 237 | 0.0 | 3.2 | 0.00 | 0.00 | 0.00 | 47 | 1008.5 |
| 20260505090011 | 21 | 10 | 1.6 | 4.8 | 0.00 | 0.00 | 0.00 | 51 | 1008.7 |
| 20260505084511 | 20 | 134 | 1.6 | 3.2 | 0.00 | 0.00 | 0.00 | 54 | 1008.9 |
| 20260505083011 | 19 | 204 | 1.6 | 4.8 | 0.00 | 0.00 | 0.00 | 55 | 1009.1 |
| 20260505081511 | 18 | 216 | 4.8 | 6.4 | 0.00 | 0.00 | 0.00 | 61 | 1009.2 |
| 20260505074511 | 16 | 207 | 4.8 | 8.0 | 0.00 | 0.00 | 0.00 | 66 | 1009.5 |
| 20260505073011 | 15 | 216 | 1.6 | 3.2 | 0.00 | 0.00 | 0.00 | 69 | 1009.4 |
| 20260505071511 | 15 | 209 | 1.6 | 3.2 | 0.00 | 0.00 | 0.00 | 72 | 1009.5 |
| 20260505070011 | 14 | 225 | 1.6 | 4.8 | 0.00 | 0.00 | 0.00 | 73 | 1009.4 |
| 20260505063011 | 13 | 221 | 0.0 | 3.2 | 0.00 | 0.00 | 0.00 | 76 | 1009.6 |
| 20260505061511 | 12 | 226 | 0.0 | 3.2 | 0.00 | 0.00 | 0.00 | 77 | 1009.7 |
| 20260505060011 | 12 | 216 | 0.0 | 0.0 | 0.00 | 0.00 | 0.00 | 80 | 1009.9 |
| 20260505054511 | 11 | 219 | 0.0 | 0.0 | 0.00 | 0.00 | 0.00 | 83 | 1009.8 |
| 20260505051511 | 10 | 197 | 1.6 | 3.2 | 0.00 | 0.00 | 0.00 | 87 | 1009.8 |
| 20260505041511 | 9 | 197 | 0.0 | 1.6 | 0.00 | 0.00 | 0.00 | 85 | 1009.8 |
| 20260505040011 | 9 | 0 | 0.0 | 0.0 | 0.00 | 0.00 | 0.00 | 85 | 1009.9 |
| 20260505033011 | 10 | 0 | 0.0 | 0.0 | 0.00 | 0.00 | 0.00 | 84 | 1010.0 |
| 20260505030011 | 10 | 0 | 0.0 | 0.0 | 0.00 | 0.00 | 0.00 | 83 | 1010.3 |
| 20260505024511 | 10 | 0 | 0.0 | 0.0 | 0.00 | 0.00 | 0.00 | 83 | 1010.3 |
| 20260505021511 | 10 | 202 | 3.2 | 6.4 | 0.00 | 0.00 | 0.00 | 82 | 1010.6 |
| 20260505020011 | 11 | 0 | 0.0 | 0.0 | 0.00 | 0.00 | 0.00 | 81 | 1010.6 |
| 20260505014511 | 11 | 198 | 1.6 | 4.8 | 0.00 | 0.00 | 0.00 | 79 | 1010.6 |
| 20260505013011 | 12 | 199 | 1.6 | 3.2 | 0.00 | 0.00 | 0.00 | 77 | 1010.5 |
| 20260505011511 | 12 | 228 | 1.6 | 3.2 | 0.00 | 0.00 | 0.00 | 78 | 1010.7 |
| 20260505010011 | 12 | 0 | 0.0 | 0.0 | 0.00 | 0.00 | 0.00 | 78 | 1010.8 |
| 20260505004511 | 12 | 228 | 1.6 | 4.8 | 0.00 | 0.00 | 0.00 | 77 | 1011.0 |
| 20260505003011 | 13 | 231 | 3.2 | 4.8 | 0.00 | 0.00 | 0.00 | 76 | 1011.0 |
| 20260505001511 | 13 | 229 | 3.2 | 4.8 | 0.00 | 0.00 | 0.00 | 74 | 1011.1 |
| 20260505000011 | 13 | 196 | 0.0 | 3.2 | 0.00 | 0.00 | 0.00 | 71 | 1011.0 |
| 20260504234511 | 14 | 0 | 0.0 | 0.0 | 0.00 | 0.00 | 0.00 | 70 | 1011.1 |
| 20260504233011 | 15 | 155 | 0.0 | 3.2 | 0.00 | 0.00 | 0.00 | 69 | 1011.1 |
| 20260504231511 | 15 | 0 | 0.0 | 0.0 | 0.00 | 0.00 | 0.00 | 68 | 1011.3 |
| 20260504224511 | 15 | 0 | 0.0 | 0.0 | 0.00 | 0.00 | 0.00 | 67 | 1011.3 |
| 20260504223011 | 15 | 0 | 0.0 | 0.0 | 0.00 | 0.00 | 0.00 | 67 | 1011.3 |
| 20260504221511 | 15 | 8 | 1.6 | 6.4 | 0.00 | 0.00 | 0.00 | 66 | 1011.5 |
| 20260504220011 | 15 | 14 | 1.6 | 6.4 | 0.00 | 0.00 | 0.00 | 66 | 1011.8 |
| 20260504214511 | 16 | 226 | 4.8 | 8.0 | 0.00 | 0.00 | 0.00 | 67 | 1012.2 |
| 20260504213011 | 16 | 220 | 6.4 | 14.5 | 0.00 | 0.00 | 0.00 | 67 | 1012.5 |
| 20260504210011 | 16 | 232 | 6.4 | 9.7 | 0.00 | 0.00 | 0.00 | 65 | 1013.0 |
| 20260504201511 | 17 | 17 | 0.0 | 3.2 | 0.00 | 0.00 | 0.00 | 53 | 1011.8 |
| 20260504200011 | 17 | 0 | 0.0 | 0.0 | 0.00 | 0.00 | 0.00 | 52 | 1011.4 |
| 20260504194511 | 18 | 0 | 0.0 | 0.0 | 0.00 | 0.00 | 0.00 | 51 | 1011.4 |
| 20260504193011 | 19 | 17 | 0.0 | 3.2 | 0.00 | 0.00 | 0.00 | 51 | 1011.3 |